sensor_id;sensor_type;location;lat;lon;timestamp;pressure;altitude;pressure_sealevel;temperature;humidity
42111;BME280;27766;52.174;5.456;2023-02-12T00:04:49;103732.16;;;6.94;100.00
42111;BME280;27766;52.174;5.456;2023-02-12T00:07:52;103735.66;;;6.95;100.00
42111;BME280;27766;52.174;5.456;2023-02-12T00:14:33;103724.06;;;6.90;100.00
42111;BME280;27766;52.174;5.456;2023-02-12T00:24:20;103724.13;;;6.79;100.00
42111;BME280;27766;52.174;5.456;2023-02-12T01:04:08;103728.34;;;6.79;100.00
42111;BME280;27766;52.174;5.456;2023-02-12T01:06:35;103730.06;;;6.78;100.00
42111;BME280;27766;52.174;5.456;2023-02-12T01:09:02;103730.56;;;6.74;100.00
42111;BME280;27766;52.174;5.456;2023-02-12T01:11:28;103729.69;;;6.74;100.00
42111;BME280;27766;52.174;5.456;2023-02-12T01:13:55;103732.50;;;6.77;100.00
42111;BME280;27766;52.174;5.456;2023-02-12T01:16:23;103735.09;;;6.77;100.00
42111;BME280;27766;52.174;5.456;2023-02-12T01:18:50;103734.31;;;6.78;100.00
42111;BME280;27766;52.174;5.456;2023-02-12T01:21:27;103738.66;;;6.79;100.00
42111;BME280;27766;52.174;5.456;2023-02-12T01:23:56;103724.53;;;6.74;100.00
42111;BME280;27766;52.174;5.456;2023-02-12T01:26:23;103729.69;;;6.74;100.00
42111;BME280;27766;52.174;5.456;2023-02-12T01:28:51;103732.25;;;6.74;100.00
42111;BME280;27766;52.174;5.456;2023-02-12T01:31:20;103727.75;;;6.71;100.00
42111;BME280;27766;52.174;5.456;2023-02-12T01:33:48;103728.53;;;6.70;100.00
42111;BME280;27766;52.174;5.456;2023-02-12T01:36:15;103726.72;;;6.69;100.00
42111;BME280;27766;52.174;5.456;2023-02-12T01:38:42;103725.06;;;6.70;100.00
42111;BME280;27766;52.174;5.456;2023-02-12T01:41:10;103731.00;;;6.69;100.00
42111;BME280;27766;52.174;5.456;2023-02-12T01:43:38;103722.25;;;6.67;100.00
42111;BME280;27766;52.174;5.456;2023-02-12T01:46:05;103727.41;;;6.67;100.00
42111;BME280;27766;52.174;5.456;2023-02-12T01:48:35;103731.78;;;6.68;100.00
42111;BME280;27766;52.174;5.456;2023-02-12T01:51:02;103730.84;;;6.67;100.00
42111;BME280;27766;52.174;5.456;2023-02-12T01:53:34;103728.94;;;6.64;100.00
42111;BME280;27766;52.174;5.456;2023-02-12T01:56:02;103727.13;;;6.63;100.00
42111;BME280;27766;52.174;5.456;2023-02-12T01:58:30;103735.41;;;6.59;100.00
42111;BME280;27766;52.174;5.456;2023-02-12T02:01:01;103731.78;;;6.57;100.00
42111;BME280;27766;52.174;5.456;2023-02-12T02:03:29;103732.44;;;6.55;100.00
42111;BME280;27766;52.174;5.456;2023-02-12T02:05:58;103725.28;;;6.51;100.00
42111;BME280;27766;52.174;5.456;2023-02-12T02:08:27;103726.44;;;6.44;100.00
42111;BME280;27766;52.174;5.456;2023-02-12T02:10:54;103732.13;;;6.40;100.00
42111;BME280;27766;52.174;5.456;2023-02-12T02:13:21;103727.47;;;6.36;100.00
42111;BME280;27766;52.174;5.456;2023-02-12T02:16:12;103731.59;;;6.33;100.00
42111;BME280;27766;52.174;5.456;2023-02-12T02:18:42;103733.78;;;6.29;100.00
42111;BME280;27766;52.174;5.456;2023-02-12T02:24:03;103741.38;;;6.27;100.00
42111;BME280;27766;52.174;5.456;2023-02-12T02:29:33;103733.56;;;6.26;100.00
42111;BME280;27766;52.174;5.456;2023-02-12T02:32:24;103731.38;;;6.20;100.00
42111;BME280;27766;52.174;5.456;2023-02-12T02:35:00;103723.38;;;6.17;100.00
42111;BME280;27766;52.174;5.456;2023-02-12T02:37:35;103732.53;;;6.13;100.00
42111;BME280;27766;52.174;5.456;2023-02-12T02:40:09;103727.38;;;6.13;100.00
42111;BME280;27766;52.174;5.456;2023-02-12T02:42:45;103727.16;;;6.10;100.00
42111;BME280;27766;52.174;5.456;2023-02-12T02:48:02;103723.16;;;6.04;100.00
42111;BME280;27766;52.174;5.456;2023-02-12T02:50:31;103709.28;;;6.01;100.00
42111;BME280;27766;52.174;5.456;2023-02-12T02:53:48;103718.25;;;5.96;100.00
42111;BME280;27766;52.174;5.456;2023-02-12T02:55:49;103721.72;;;5.86;100.00
42111;BME280;27766;52.174;5.456;2023-02-12T02:58:21;103721.22;;;5.80;100.00
42111;BME280;27766;52.174;5.456;2023-02-12T03:00:56;103709.53;;;5.74;100.00
42111;BME280;27766;52.174;5.456;2023-02-12T03:03:29;103714.16;;;5.67;100.00
42111;BME280;27766;52.174;5.456;2023-02-12T03:06:01;103712.47;;;5.58;100.00
42111;BME280;27766;52.174;5.456;2023-02-12T03:08:33;103707.84;;;5.53;100.00
42111;BME280;27766;52.174;5.456;2023-02-12T03:11:04;103712.97;;;5.53;100.00
42111;BME280;27766;52.174;5.456;2023-02-12T03:13:33;103711.97;;;5.51;100.00
42111;BME280;27766;52.174;5.456;2023-02-12T03:16:25;103711.06;;;5.51;100.00
42111;BME280;27766;52.174;5.456;2023-02-12T03:29:11;103706.69;;;5.50;100.00
42111;BME280;27766;52.174;5.456;2023-02-12T03:39:29;103709.41;;;5.51;100.00
42111;BME280;27766;52.174;5.456;2023-02-12T03:42:06;103713.25;;;5.57;100.00
42111;BME280;27766;52.174;5.456;2023-02-12T03:47:19;103713.88;;;5.64;100.00
42111;BME280;27766;52.174;5.456;2023-02-12T03:49:52;103712.34;;;5.66;100.00
42111;BME280;27766;52.174;5.456;2023-02-12T03:52:21;103713.38;;;5.68;100.00
42111;BME280;27766;52.174;5.456;2023-02-12T03:54:48;103715.97;;;5.68;100.00
42111;BME280;27766;52.174;5.456;2023-02-12T03:57:17;103719.28;;;5.67;100.00
42111;BME280;27766;52.174;5.456;2023-02-12T03:59:45;103723.78;;;5.70;100.00
42111;BME280;27766;52.174;5.456;2023-02-12T04:02:13;103722.13;;;5.70;100.00
42111;BME280;27766;52.174;5.456;2023-02-12T04:04:41;103717.38;;;5.65;100.00
42111;BME280;27766;52.174;5.456;2023-02-12T04:07:08;103721.47;;;5.63;100.00
42111;BME280;27766;52.174;5.456;2023-02-12T04:09:35;103718.78;;;5.61;100.00
42111;BME280;27766;52.174;5.456;2023-02-12T04:12:20;103728.28;;;5.62;100.00
42111;BME280;27766;52.174;5.456;2023-02-12T04:30:40;103734.31;;;5.63;100.00
42111;BME280;27766;52.174;5.456;2023-02-12T04:33:09;103737.00;;;5.64;100.00
42111;BME280;27766;52.174;5.456;2023-02-12T04:35:47;103741.38;;;5.65;100.00
42111;BME280;27766;52.174;5.456;2023-02-12T04:40:42;103753.75;;;5.69;100.00
42111;BME280;27766;52.174;5.456;2023-02-12T04:43:09;103747.03;;;5.71;100.00
42111;BME280;27766;52.174;5.456;2023-02-12T04:45:36;103749.88;;;5.75;100.00
42111;BME280;27766;52.174;5.456;2023-02-12T04:48:04;103747.31;;;5.75;100.00
42111;BME280;27766;52.174;5.456;2023-02-12T04:50:38;103754.25;;;5.76;100.00
42111;BME280;27766;52.174;5.456;2023-02-12T04:53:05;103751.81;;;5.77;100.00
42111;BME280;27766;52.174;5.456;2023-02-12T04:55:32;103752.97;;;5.81;100.00
42111;BME280;27766;52.174;5.456;2023-02-12T04:57:59;103752.97;;;5.81;100.00
42111;BME280;27766;52.174;5.456;2023-02-12T05:00:26;103750.50;;;5.82;100.00
42111;BME280;27766;52.174;5.456;2023-02-12T05:02:53;103751.44;;;5.83;100.00
42111;BME280;27766;52.174;5.456;2023-02-12T05:05:20;103752.97;;;5.81;100.00
42111;BME280;27766;52.174;5.456;2023-02-12T05:07:47;103756.28;;;5.80;100.00
42111;BME280;27766;52.174;5.456;2023-02-12T05:10:14;103751.16;;;5.80;100.00
42111;BME280;27766;52.174;5.456;2023-02-12T05:12:41;103758.09;;;5.81;100.00
42111;BME280;27766;52.174;5.456;2023-02-12T05:15:08;103752.72;;;5.78;100.00
42111;BME280;27766;52.174;5.456;2023-02-12T05:17:35;103761.44;;;5.80;100.00
42111;BME280;27766;52.174;5.456;2023-02-12T05:20:02;103751.16;;;5.80;100.00
42111;BME280;27766;52.174;5.456;2023-02-12T05:22:29;103754.00;;;5.83;100.00
42111;BME280;27766;52.174;5.456;2023-02-12T05:24:56;103748.09;;;5.84;100.00
42111;BME280;27766;52.174;5.456;2023-02-12T05:27:23;103751.69;;;5.86;100.00
42111;BME280;27766;52.174;5.456;2023-02-12T05:29:50;103756.84;;;5.86;100.00
42111;BME280;27766;52.174;5.456;2023-02-12T05:32:17;103744.88;;;5.86;100.00
42111;BME280;27766;52.174;5.456;2023-02-12T05:34:44;103751.94;;;5.89;100.00
42111;BME280;27766;52.174;5.456;2023-02-12T05:37:11;103754.63;;;5.91;100.00
42111;BME280;27766;52.174;5.456;2023-02-12T05:39:38;103755.28;;;5.88;100.00
42111;BME280;27766;52.174;5.456;2023-02-12T05:42:05;103756.03;;;5.87;100.00
42111;BME280;27766;52.174;5.456;2023-02-12T05:44:32;103764.56;;;5.86;100.00
42111;BME280;27766;52.174;5.456;2023-02-12T05:46:59;103756.03;;;5.87;100.00
42111;BME280;27766;52.174;5.456;2023-02-12T05:49:25;103763.75;;;5.87;100.00
42111;BME280;27766;52.174;5.456;2023-02-12T05:51:52;103768.00;;;5.86;100.00
42111;BME280;27766;52.174;5.456;2023-02-12T05:54:19;103765.44;;;5.86;100.00
42111;BME280;27766;52.174;5.456;2023-02-12T05:56:46;103766.31;;;5.87;100.00
42111;BME280;27766;52.174;5.456;2023-02-12T05:59:15;103765.44;;;5.86;100.00
42111;BME280;27766;52.174;5.456;2023-02-12T06:01:43;103759.41;;;5.86;100.00
42111;BME280;27766;52.174;5.456;2023-02-12T06:04:14;103764.56;;;5.86;100.00
42111;BME280;27766;52.174;5.456;2023-02-12T06:06:41;103769.69;;;5.86;100.00
42111;BME280;27766;52.174;5.456;2023-02-12T06:09:09;103775.59;;;5.85;100.00
42111;BME280;27766;52.174;5.456;2023-02-12T06:11:37;103765.44;;;5.86;100.00
42111;BME280;27766;52.174;5.456;2023-02-12T06:14:05;103764.78;;;5.89;100.00
42111;BME280;27766;52.174;5.456;2023-02-12T06:16:33;103766.59;;;5.90;100.00
42111;BME280;27766;52.174;5.456;2023-02-12T06:19:01;103767.34;;;5.89;100.00
42111;BME280;27766;52.174;5.456;2023-02-12T06:21:28;103773.41;;;5.90;100.00
42111;BME280;27766;52.174;5.456;2023-02-12T06:23:55;103765.56;;;5.88;100.00
42111;BME280;27766;52.174;5.456;2023-02-12T06:26:22;103764.78;;;5.89;100.00
42111;BME280;27766;52.174;5.456;2023-02-12T06:28:50;103764.13;;;5.92;100.00
42111;BME280;27766;52.174;5.456;2023-02-12T06:33:46;103758.88;;;5.90;100.00
42111;BME280;27766;52.174;5.456;2023-02-12T06:36:14;103763.25;;;5.91;100.00
42111;BME280;27766;52.174;5.456;2023-02-12T06:38:41;103755.53;;;5.91;100.00
42111;BME280;27766;52.174;5.456;2023-02-12T06:41:08;103765.06;;;5.92;100.00
42111;BME280;27766;52.174;5.456;2023-02-12T06:43:35;103768.41;;;5.91;100.00
42111;BME280;27766;52.174;5.456;2023-02-12T06:46:03;103769.28;;;5.92;100.00
42111;BME280;27766;52.174;5.456;2023-02-12T06:48:30;103764.78;;;5.89;100.00
42111;BME280;27766;52.174;5.456;2023-02-12T06:51:04;103768.41;;;5.91;100.00
42111;BME280;27766;52.174;5.456;2023-02-12T06:53:32;103773.25;;;5.88;100.00
42111;BME280;27766;52.174;5.456;2023-02-12T06:56:01;103784.72;;;5.92;100.00
42111;BME280;27766;52.174;5.456;2023-02-12T06:58:28;103780.34;;;5.91;100.00
42111;BME280;27766;52.174;5.456;2023-02-12T07:00:55;103779.56;;;5.92;100.00
42111;BME280;27766;52.174;5.456;2023-02-12T07:03:21;103783.94;;;5.93;100.00
42111;BME280;27766;52.174;5.456;2023-02-12T07:05:49;103780.47;;;5.92;100.00
42111;BME280;27766;52.174;5.456;2023-02-12T07:08:16;103783.94;;;5.93;100.00
42111;BME280;27766;52.174;5.456;2023-02-12T07:10:46;103781.38;;;5.93;100.00
42111;BME280;27766;52.174;5.456;2023-02-12T07:13:13;103780.59;;;5.94;100.00
42111;BME280;27766;52.174;5.456;2023-02-12T07:15:40;103782.28;;;5.93;100.00
42111;BME280;27766;52.174;5.456;2023-02-12T07:18:07;103788.44;;;5.95;100.00
42111;BME280;27766;52.174;5.456;2023-02-12T07:20:34;103796.91;;;5.94;100.00
42111;BME280;27766;52.174;5.456;2023-02-12T07:23:01;103797.94;;;5.96;100.00
42111;BME280;27766;52.174;5.456;2023-02-12T07:25:28;103798.25;;;5.99;100.00
42111;BME280;27766;52.174;5.456;2023-02-12T07:27:55;103795.69;;;5.99;100.00
42111;BME280;27766;52.174;5.456;2023-02-12T07:30:21;103802.63;;;6.00;100.00
42111;BME280;27766;52.174;5.456;2023-02-12T07:32:49;103805.44;;;6.04;100.00
42111;BME280;27766;52.174;5.456;2023-02-12T07:35:16;103813.16;;;6.04;100.00
42111;BME280;27766;52.174;5.456;2023-02-12T07:37:43;103812.38;;;6.05;100.00
42111;BME280;27766;52.174;5.456;2023-02-12T07:40:10;103812.50;;;6.06;100.00
42111;BME280;27766;52.174;5.456;2023-02-12T07:42:36;103816.00;;;6.07;100.00
42111;BME280;27766;52.174;5.456;2023-02-12T07:45:03;103820.50;;;6.09;100.00
42111;BME280;27766;52.174;5.456;2023-02-12T07:47:30;103825.63;;;6.09;100.00
42111;BME280;27766;52.174;5.456;2023-02-12T07:49:57;103821.53;;;6.11;100.00
42111;BME280;27766;52.174;5.456;2023-02-12T07:52:24;103828.47;;;6.12;100.00
42111;BME280;27766;52.174;5.456;2023-02-12T07:54:51;103823.56;;;6.15;100.00
42111;BME280;27766;52.174;5.456;2023-02-12T07:57:18;103823.56;;;6.15;100.00
42111;BME280;27766;52.174;5.456;2023-02-12T07:59:45;103830.53;;;6.16;100.00
42111;BME280;27766;52.174;5.456;2023-02-12T08:02:12;103821.13;;;6.17;100.00
42111;BME280;27766;52.174;5.456;2023-02-12T08:04:39;103829.09;;;6.20;100.00
42111;BME280;27766;52.174;5.456;2023-02-12T08:07:06;103829.38;;;6.23;100.00
42111;BME280;27766;52.174;5.456;2023-02-12T08:09:33;103835.53;;;6.25;100.00
42111;BME280;27766;52.174;5.456;2023-02-12T08:12:00;103838.25;;;6.27;100.00
42111;BME280;27766;52.174;5.456;2023-02-12T08:14:26;103840.06;;;6.28;100.00
42111;BME280;27766;52.174;5.456;2023-02-12T08:16:54;103841.97;;;6.30;100.00
42111;BME280;27766;52.174;5.456;2023-02-12T08:19:21;103839.53;;;6.32;100.00
42111;BME280;27766;52.174;5.456;2023-02-12T08:21:52;103849.28;;;6.36;100.00
42111;BME280;27766;52.174;5.456;2023-02-12T08:24:19;103846.09;;;6.39;100.00
42111;BME280;27766;52.174;5.456;2023-02-12T08:26:48;103850.59;;;6.41;100.00
42111;BME280;27766;52.174;5.456;2023-02-12T08:29:17;103850.47;;;6.40;100.00
42111;BME280;27766;52.174;5.456;2023-02-12T08:31:45;103855.63;;;6.40;100.00
42111;BME280;27766;52.174;5.456;2023-02-12T08:34:15;103859.34;;;6.43;100.00
42111;BME280;27766;52.174;5.456;2023-02-12T08:36:43;103866.41;;;6.46;100.00
42111;BME280;27766;52.174;5.456;2023-02-12T08:39:10;103869.22;;;6.49;100.00
42111;BME280;27766;52.174;5.456;2023-02-12T08:41:38;103865.88;;;6.50;100.00
42111;BME280;27766;52.174;5.456;2023-02-12T08:44:05;103873.88;;;6.53;100.00
42111;BME280;27766;52.174;5.456;2023-02-12T08:46:33;103869.72;;;6.55;100.00
42111;BME280;27766;52.174;5.456;2023-02-12T08:49:02;103874.88;;;6.55;100.00
42111;BME280;27766;52.174;5.456;2023-02-12T08:51:30;103880.94;;;6.56;100.00
42111;BME280;27766;52.174;5.456;2023-02-12T08:54:01;103878.25;;;6.54;100.00
42111;BME280;27766;52.174;5.456;2023-02-12T08:56:29;103880.03;;;6.55;100.00
42111;BME280;27766;52.174;5.456;2023-02-12T08:58:57;103886.22;;;6.57;100.00
42111;BME280;27766;52.174;5.456;2023-02-12T09:01:25;103884.94;;;6.62;100.00
42111;BME280;27766;52.174;5.456;2023-02-12T09:03:52;103880.69;;;6.63;100.00
42111;BME280;27766;52.174;5.456;2023-02-12T09:06:20;103878.09;;;6.63;100.00
42111;BME280;27766;52.174;5.456;2023-02-12T09:08:48;103881.84;;;6.67;100.00
42111;BME280;27766;52.174;5.456;2023-02-12T09:11:16;103874.22;;;6.68;100.00
42111;BME280;27766;52.174;5.456;2023-02-12T09:13:45;103880.94;;;6.66;100.00
42111;BME280;27766;52.174;5.456;2023-02-12T09:16:12;103879.25;;;6.67;100.00
42111;BME280;27766;52.174;5.456;2023-02-12T09:18:40;103882.09;;;6.70;100.00
42111;BME280;27766;52.174;5.456;2023-02-12T09:21:13;103885.69;;;6.72;100.00
42111;BME280;27766;52.174;5.456;2023-02-12T09:23:42;103882.44;;;6.74;100.00
42111;BME280;27766;52.174;5.456;2023-02-12T09:26:10;103884.41;;;6.77;100.00
42111;BME280;27766;52.174;5.456;2023-02-12T09:28:38;103898.28;;;6.79;100.00
42111;BME280;27766;52.174;5.456;2023-02-12T09:31:06;103895.97;;;6.82;100.00
42111;BME280;27766;52.174;5.456;2023-02-12T09:33:33;103895.19;;;6.83;100.00
42111;BME280;27766;52.174;5.456;2023-02-12T09:36:01;103890.94;;;6.84;100.00
42111;BME280;27766;52.174;5.456;2023-02-12T09:38:28;103893.78;;;6.87;100.00
42111;BME280;27766;52.174;5.456;2023-02-12T09:45:54;103890.28;;;6.86;100.00
42111;BME280;27766;52.174;5.456;2023-02-12T09:48:34;103889.66;;;6.89;100.00
42111;BME280;27766;52.174;5.456;2023-02-12T09:51:05;103894.38;;;6.94;100.00
42111;BME280;27766;52.174;5.456;2023-02-12T09:53:34;103891.31;;;6.99;100.00
42111;BME280;27766;52.174;5.456;2023-02-12T09:56:02;103885.63;;;7.03;100.00
42111;BME280;27766;52.174;5.456;2023-02-12T09:58:32;103892.56;;;7.04;100.00
42111;BME280;27766;52.174;5.456;2023-02-12T10:01:03;103890.75;;;7.03;100.00
42111;BME280;27766;52.174;5.456;2023-02-12T10:03:36;103898.75;;;7.06;100.00
42111;BME280;27766;52.174;5.456;2023-02-12T10:06:04;103890.25;;;7.07;100.00
42111;BME280;27766;52.174;5.456;2023-02-12T10:08:38;103894.63;;;7.08;100.00
42111;BME280;27766;52.174;5.456;2023-02-12T10:21:42;103887.41;;;7.14;100.00
42111;BME280;27766;52.174;5.456;2023-02-12T10:26:47;103892.78;;;7.17;100.00
42111;BME280;27766;52.174;5.456;2023-02-12T10:29:28;103888.66;;;7.19;100.00
42111;BME280;27766;52.174;5.456;2023-02-12T10:32:04;103896.66;;;7.22;100.00
42111;BME280;27766;52.174;5.456;2023-02-12T10:34:34;103897.91;;;7.27;100.00
42111;BME280;27766;52.174;5.456;2023-02-12T10:37:08;103896.38;;;7.29;100.00
42111;BME280;27766;52.174;5.456;2023-02-12T10:39:40;103902.66;;;7.33;100.00
42111;BME280;27766;52.174;5.456;2023-02-12T10:42:15;103897.63;;;7.35;100.00
42111;BME280;27766;52.174;5.456;2023-02-12T10:44:42;103893.25;;;7.34;100.00
42111;BME280;27766;52.174;5.456;2023-02-12T10:47:14;103907.72;;;7.32;100.00
42111;BME280;27766;52.174;5.456;2023-02-12T10:49:44;103896.09;;;7.37;100.00
42111;BME280;27766;52.174;5.456;2023-02-12T10:54:43;103898.53;;;7.35;100.00
42111;BME280;27766;52.174;5.456;2023-02-12T10:57:23;103897.75;;;7.36;100.00
42111;BME280;27766;52.174;5.456;2023-02-12T10:59:52;103900.56;;;7.39;100.00
42111;BME280;27766;52.174;5.456;2023-02-12T11:02:30;103897.22;;;7.40;100.00
42111;BME280;27766;52.174;5.456;2023-02-12T11:04:59;103896.81;;;7.46;100.00
42111;BME280;27766;52.174;5.456;2023-02-12T11:07:27;103891.91;;;7.49;100.00
42111;BME280;27766;52.174;5.456;2023-02-12T11:09:55;103891.22;;;7.52;100.00
42111;BME280;27766;52.174;5.456;2023-02-12T11:14:50;103894.19;;;7.56;100.00
42111;BME280;27766;52.174;5.456;2023-02-12T11:17:37;103889.50;;;7.63;100.00
42111;BME280;27766;52.174;5.456;2023-02-12T11:22:48;103890.41;;;7.63;100.00
42111;BME280;27766;52.174;5.456;2023-02-12T11:25:16;103882.56;;;7.62;100.00
42111;BME280;27766;52.174;5.456;2023-02-12T11:27:43;103879.44;;;7.66;100.00
42111;BME280;27766;52.174;5.456;2023-02-12T11:30:18;103887.44;;;7.69;100.00
42111;BME280;27766;52.174;5.456;2023-02-12T11:32:46;103886.66;;;7.70;100.00
42111;BME280;27766;52.174;5.456;2023-02-12T11:35:16;103879.44;;;7.66;100.00
42111;BME280;27766;52.174;5.456;2023-02-12T11:37:50;103887.66;;;7.72;100.00
42111;BME280;27766;52.174;5.456;2023-02-12T11:40:20;103875.53;;;7.71;100.00
42111;BME280;27766;52.174;5.456;2023-02-12T11:42:49;103878.78;;;7.68;100.00
42111;BME280;27766;52.174;5.456;2023-02-12T11:45:18;103872.84;;;7.69;100.00
42111;BME280;27766;52.174;5.456;2023-02-12T11:47:46;103867.16;;;7.73;100.00
42111;BME280;27766;52.174;5.456;2023-02-12T11:52:46;103882.09;;;7.78;100.00
42111;BME280;27766;52.174;5.456;2023-02-12T11:55:26;103882.19;;;7.79;100.00
42111;BME280;27766;52.174;5.456;2023-02-12T11:58:00;103879.22;;;7.85;100.00
42111;BME280;27766;52.174;5.456;2023-02-12T12:00:38;103872.50;;;7.87;100.00
42111;BME280;27766;52.174;5.456;2023-02-12T12:03:10;103872.38;;;7.85;100.00
42111;BME280;27766;52.174;5.456;2023-02-12T12:05:43;103866.78;;;7.91;100.00
42111;BME280;27766;52.174;5.456;2023-02-12T12:08:14;103865.22;;;7.93;100.00
42111;BME280;27766;52.174;5.456;2023-02-12T12:10:48;103858.50;;;7.95;100.00
42111;BME280;27766;52.174;5.456;2023-02-12T12:13:18;103857.59;;;7.95;100.00
42111;BME280;27766;52.174;5.456;2023-02-12T12:15:52;103853.47;;;7.97;100.00
42111;BME280;27766;52.174;5.456;2023-02-12T12:21:33;103847.53;;;7.98;100.00
42111;BME280;27766;52.174;5.456;2023-02-12T12:24:03;103846.09;;;8.01;100.00
42111;BME280;27766;52.174;5.456;2023-02-12T12:26:35;103850.47;;;8.02;100.00
42111;BME280;27766;52.174;5.456;2023-02-12T12:29:25;103848.00;;;8.04;100.00
42111;BME280;27766;52.174;5.456;2023-02-12T12:31:53;103844.75;;;8.06;100.00
42111;BME280;27766;52.174;5.456;2023-02-12T12:34:24;103846.44;;;8.06;100.00
42111;BME280;27766;52.174;5.456;2023-02-12T12:37:05;103846.66;;;8.09;100.00
42111;BME280;27766;52.174;5.456;2023-02-12T13:03:10;103840.41;;;8.17;100.00
42111;BME280;27766;52.174;5.456;2023-02-12T13:05:45;103831.88;;;8.18;100.00
42111;BME280;27766;52.174;5.456;2023-02-12T13:10:48;103824.91;;;8.17;100.00
42111;BME280;27766;52.174;5.456;2023-02-12T13:18:19;103821.66;;;8.20;100.00
42111;BME280;27766;52.174;5.456;2023-02-12T13:20:50;103820.00;;;8.20;100.00
42111;BME280;27766;52.174;5.456;2023-02-12T13:28:32;103814.84;;;8.20;100.00
42111;BME280;27766;52.174;5.456;2023-02-12T13:31:01;103819.66;;;8.16;100.00
42111;BME280;27766;52.174;5.456;2023-02-12T13:33:42;103809.22;;;8.14;100.00
42111;BME280;27766;52.174;5.456;2023-02-12T13:36:13;103810.88;;;8.14;100.00
42111;BME280;27766;52.174;5.456;2023-02-12T13:38:47;103806.50;;;8.13;100.00
42111;BME280;27766;52.174;5.456;2023-02-12T13:41:16;103807.31;;;8.12;100.00
42111;BME280;27766;52.174;5.456;2023-02-12T13:43:47;103808.19;;;8.12;100.00
42111;BME280;27766;52.174;5.456;2023-02-12T13:58:54;103790.91;;;8.11;100.00
42111;BME280;27766;52.174;5.456;2023-02-12T14:04:15;103795.06;;;8.09;100.00
42111;BME280;27766;52.174;5.456;2023-02-12T14:09:40;103785.41;;;8.06;100.00
42111;BME280;27766;52.174;5.456;2023-02-12T14:12:15;103787.00;;;8.04;100.00
42111;BME280;27766;52.174;5.456;2023-02-12T14:14:44;103784.28;;;8.03;100.00
42111;BME280;27766;52.174;5.456;2023-02-12T14:24:52;103778.41;;;7.93;100.00
42111;BME280;27766;52.174;5.456;2023-02-12T14:37:52;103763.63;;;7.91;100.00
42111;BME280;27766;52.174;5.456;2023-02-12T14:43:02;103772.94;;;7.89;100.00
42111;BME280;27766;52.174;5.456;2023-02-12T14:45:31;103768.66;;;7.89;100.00
42111;BME280;27766;52.174;5.456;2023-02-12T14:47:58;103765.19;;;7.89;100.00
42111;BME280;27766;52.174;5.456;2023-02-12T14:50:36;103762.50;;;7.87;100.00
42111;BME280;27766;52.174;5.456;2023-02-12T14:53:06;103770.13;;;7.86;100.00
42111;BME280;27766;52.174;5.456;2023-02-12T14:55:33;103768.97;;;7.82;100.00
42111;BME280;27766;52.174;5.456;2023-02-12T14:58:02;103771.47;;;7.81;100.00
42111;BME280;27766;52.174;5.456;2023-02-12T15:00:48;103768.06;;;7.82;100.00
42111;BME280;27766;52.174;5.456;2023-02-12T15:03:22;103779.06;;;7.79;100.00
42111;BME280;27766;52.174;5.456;2023-02-12T15:05:56;103773.91;;;7.79;100.00
42111;BME280;27766;52.174;5.456;2023-02-12T15:13:53;103776.69;;;7.70;100.00
42111;BME280;27766;52.174;5.456;2023-02-12T15:16:37;103775.47;;;7.77;100.00
42111;BME280;27766;52.174;5.456;2023-02-12T15:21:32;103776.69;;;7.70;100.00
42111;BME280;27766;52.174;5.456;2023-02-12T15:26:26;103773.06;;;7.68;100.00
42111;BME280;27766;52.174;5.456;2023-02-12T15:28:55;103772.72;;;7.64;100.00
42111;BME280;27766;52.174;5.456;2023-02-12T15:31:24;103769.38;;;7.65;100.00
42111;BME280;27766;52.174;5.456;2023-02-12T15:33:52;103772.72;;;7.64;100.00
42111;BME280;27766;52.174;5.456;2023-02-12T15:36:22;103769.94;;;7.60;100.00
42111;BME280;27766;52.174;5.456;2023-02-12T15:39:03;103771.59;;;7.60;100.00
42111;BME280;27766;52.174;5.456;2023-02-12T15:43:57;103767.09;;;7.57;100.00
42111;BME280;27766;52.174;5.456;2023-02-12T15:46:25;103769.47;;;7.54;100.00
42111;BME280;27766;52.174;5.456;2023-02-12T15:48:52;103756.44;;;7.53;100.00
42111;BME280;27766;52.174;5.456;2023-02-12T15:51:28;103762.34;;;7.52;100.00
42111;BME280;27766;52.174;5.456;2023-02-12T15:53:56;103761.72;;;7.54;100.00
42111;BME280;27766;52.174;5.456;2023-02-12T15:56:24;103761.38;;;7.50;100.00
42111;BME280;27766;52.174;5.456;2023-02-12T15:58:52;103760.88;;;7.43;100.00
42111;BME280;27766;52.174;5.456;2023-02-12T16:01:21;103766.31;;;7.36;100.00
42111;BME280;27766;52.174;5.456;2023-02-12T16:03:50;103758.72;;;7.38;100.00
42111;BME280;27766;52.174;5.456;2023-02-12T16:06:18;103763.13;;;7.39;100.00
42111;BME280;27766;52.174;5.456;2023-02-12T16:08:46;103757.03;;;7.38;100.00
42111;BME280;27766;52.174;5.456;2023-02-12T16:11:18;103755.50;;;7.40;100.00
42111;BME280;27766;52.174;5.456;2023-02-12T16:13:50;103758.19;;;7.42;100.00
42111;BME280;27766;52.174;5.456;2023-02-12T16:16:20;103758.28;;;7.43;100.00
42111;BME280;27766;52.174;5.456;2023-02-12T16:19:01;103753.03;;;7.42;100.00
42111;BME280;27766;52.174;5.456;2023-02-12T16:21:28;103755.59;;;7.42;100.00
42111;BME280;27766;52.174;5.456;2023-02-12T16:23:56;103762.19;;;7.38;100.00
42111;BME280;27766;52.174;5.456;2023-02-12T16:26:24;103756.94;;;7.37;100.00
42111;BME280;27766;52.174;5.456;2023-02-12T16:28:53;103752.19;;;7.31;100.00
42111;BME280;27766;52.174;5.456;2023-02-12T16:31:23;103752.84;;;7.28;100.00
42111;BME280;27766;52.174;5.456;2023-02-12T16:33:53;103755.69;;;7.32;100.00
42111;BME280;27766;52.174;5.456;2023-02-12T16:38:49;103755.69;;;7.32;100.00
42111;BME280;27766;52.174;5.456;2023-02-12T16:43:48;103763.16;;;7.28;100.00
42111;BME280;27766;52.174;5.456;2023-02-12T16:46:17;103760.09;;;7.22;100.00
42111;BME280;27766;52.174;5.456;2023-02-12T16:48:47;103761.91;;;7.23;100.00
42111;BME280;27766;52.174;5.456;2023-02-12T16:51:24;103767.19;;;7.25;100.00